Time;durP1;ratioP1;P1;durP2;ratioP2;P2;SDS_P1;SDS_P2;PMS_P1;PMS_P2;Temp;Humidity;BMP_temperature;BMP_pressure;BME280_temperature;BME280_humidity;BME280_pressure;Samples;Min_cycle;Max_cycle;Signal;HPM_P1;HPM_P2
2022/12/14 00:05:00;;;;;;;37.33;15.18;;;;;;;3.67;100.00;100216.50;10335244;28;20042;-79
2022/12/14 00:10:01;;;;;;;56.13;17.40;;;;;;;3.39;100.00;100157.56;10335557;28;20670;-79
2022/12/14 00:15:02;;;;;;;57.55;17.83;;;;;;;3.63;100.00;100178.34;10335572;28;20042;-79
2022/12/14 00:20:04;;;;;;;54.35;17.15;;;;;;;3.82;100.00;100197.81;10334671;28;20050;-79
2022/12/14 00:25:05;;;;;;;75.50;17.73;;;;;;;3.45;100.00;100142.25;10335201;28;20042;-79
2022/12/14 00:30:07;;;;;;;61.13;19.52;;;;;;;3.67;100.00;100169.22;10335064;28;20482;-78
2022/12/14 00:35:13;;;;;;;40.00;16.80;;;;;;;3.75;100.00;100171.22;10333917;28;20156;-79
2022/12/14 00:40:14;;;;;;;38.67;17.00;;;;;;;3.94;100.00;100212.56;10333787;28;20046;-79
2022/12/14 00:45:15;;;;;;;57.70;17.10;;;;;;;3.78;100.00;100164.88;10334062;28;20049;-79
2022/12/14 00:50:16;;;;;;;58.03;17.83;;;;;;;3.99;100.00;100199.88;10316790;28;20042;-79
2022/12/14 00:55:16;;;;;;;59.80;18.38;;;;;;;3.69;100.00;100160.41;10333776;28;20038;-80
2022/12/14 01:00:17;;;;;;;39.78;18.58;;;;;;;4.10;100.00;100217.38;10333631;28;20042;-78
2022/12/14 01:05:18;;;;;;;55.47;19.00;;;;;;;3.98;100.00;100192.94;10333097;28;20476;-79
2022/12/14 01:10:19;;;;;;;40.38;18.88;;;;;;;4.00;100.00;100198.88;10332910;28;20055;-79
2022/12/14 01:15:20;;;;;;;35.53;18.38;;;;;;;4.17;100.00;100221.13;10333258;28;20089;-82
2022/12/14 01:20:20;;;;;;;42.58;17.27;;;;;;;4.28;100.00;100228.97;10332486;28;20092;-80
2022/12/14 01:25:21;;;;;;;33.15;16.80;;;;;;;4.26;100.00;100207.22;10333379;28;20208;-79
2022/12/14 01:30:22;;;;;;;33.00;16.40;;;;;;;4.28;100.00;100212.34;10332322;28;20162;-79
2022/12/14 01:35:23;;;;;;;33.50;18.90;;;;;;;4.28;100.00;100199.22;10333000;28;20046;-80
2022/12/14 01:40:23;;;;;;;46.55;18.83;;;;;;;4.35;100.00;100210.84;10332538;28;20039;-80
2022/12/14 01:45:24;;;;;;;41.38;18.52;;;;;;;3.55;100.00;100086.19;10331115;28;20057;-79
2022/12/14 01:50:34;;;;;;;37.95;19.40;;;;;;;4.41;100.00;100239.25;10331580;28;20546;-80
2022/12/14 01:55:42;;;;;;;33.75;18.80;;;;;;;4.32;100.00;100222.47;10332151;28;20077;-80
2022/12/14 02:00:43;;;;;;;39.05;19.27;;;;;;;4.51;100.00;100269.06;10331874;28;20054;-80
2022/12/14 02:06:03;;;;;;;34.33;18.67;;;;;;;4.00;100.00;100146.31;10332066;28;20528;-80
2022/12/14 02:11:04;;;;;;;32.70;18.33;;;;;;;4.05;100.00;100166.97;10331526;28;20498;-79
2022/12/14 02:16:06;;;;;;;32.33;18.95;;;;;;;4.46;100.00;100236.25;10331104;28;20034;-79
2022/12/14 02:21:22;;;;;;;32.63;17.25;;;;;;;4.41;100.00;100220.03;10330869;28;20085;-79
2022/12/14 02:27:07;;;;;;;36.00;17.67;;;;;;;4.67;100.00;100241.47;10330520;28;20062;-80
2022/12/14 02:32:41;;;;;;;31.75;16.83;;;;;;;4.72;100.00;100236.63;10325726;28;20092;-80
2022/12/14 02:38:04;;;;;;;26.63;16.50;;;;;;;4.71;100.00;100221.81;10282955;28;20070;-81
2022/12/14 02:43:11;;;;;;;25.77;16.02;;;;;;;4.67;100.00;100246.72;10320035;28;20046;-81
2022/12/14 02:48:20;;;;;;;31.48;17.88;;;;;;;4.59;100.00;100239.47;10330919;28;20062;-81
2022/12/14 02:53:34;;;;;;;27.20;17.05;;;;;;;4.35;100.00;100209.06;10331337;28;20042;-78
2022/12/14 02:58:49;;;;;;;27.17;17.20;;;;;;;4.67;100.00;100287.03;10315696;28;20121;-80
2022/12/14 03:03:50;;;;;;;36.33;19.83;;;;;;;4.62;100.00;100326.03;10301113;28;20054;-78
2022/12/14 03:08:55;;;;;;;41.08;20.52;;;;;;;4.51;100.00;100342.72;10288655;28;20047;-79
2022/12/14 03:14:26;;;;;;;49.85;21.40;;;;;;;4.45;100.00;100342.41;10297201;28;20108;-79
2022/12/14 03:19:36;;;;;;;47.72;21.95;;;;;;;4.43;100.00;100371.50;10296167;28;20549;-79
2022/12/14 03:24:46;;;;;;;44.42;20.02;;;;;;;4.10;100.00;100348.81;10294213;28;20429;-77
2022/12/14 03:29:52;;;;;;;64.07;20.33;;;;;;;3.93;100.00;100337.03;10294093;28;20073;-86
2022/12/14 03:35:03;;;;;;;38.22;21.20;;;;;;;4.07;100.00;100370.94;10301885;28;20038;-76
2022/12/14 03:40:09;;;;;;;44.65;19.92;;;;;;;3.69;100.00;100332.00;10334813;28;20457;-80
2022/12/14 03:45:33;;;;;;;33.63;18.48;;;;;;;4.07;100.00;100407.72;10336447;28;20042;-77
2022/12/14 03:50:37;;;;;;;40.55;20.40;;;;;;;3.50;100.00;100330.03;10336902;28;20050;-75
2022/12/14 03:55:59;;;;;;;33.17;19.70;;;;;;;3.63;100.00;100353.50;10318415;28;20391;-76
2022/12/14 04:01:13;;;;;;;31.42;19.92;;;;;;;4.05;100.00;100441.19;10335958;28;20170;-74
2022/12/14 04:06:17;;;;;;;33.67;18.00;;;;;;;3.61;100.00;100356.25;10334497;28;20040;-78
2022/12/14 04:22:08;;;;;;;28.60;18.00;;;;;;;3.49;100.00;100351.13;10335415;28;20068;-77
2022/12/14 04:27:42;;;;;;;25.73;17.38;;;;;;;4.11;100.00;100472.25;10335512;28;20425;-73
2022/12/14 04:32:53;;;;;;;29.83;17.10;;;;;;;4.08;100.00;100488.25;10299715;28;20054;-76
2022/12/14 04:38:01;;;;;;;24.45;15.00;;;;;;;3.47;100.00;100419.56;10334019;28;20043;-73
2022/12/14 04:43:10;;;;;;;22.15;15.45;;;;;;;3.96;100.00;100517.31;10329058;28;20053;-72
2022/12/14 04:48:26;;;;;;;25.33;15.95;;;;;;;3.97;100.00;100525.06;10333628;28;20089;-73
2022/12/14 04:53:32;;;;;;;24.00;15.85;;;;;;;4.02;100.00;100519.47;10333559;28;20050;-74
2022/12/14 04:58:34;;;;;;;24.25;15.98;;;;;;;4.07;100.00;100515.50;10333968;28;20406;-74
2022/12/14 05:03:48;;;;;;;22.00;14.25;;;;;;;4.02;100.00;100498.44;10333455;28;20042;-74
2022/12/14 05:09:09;;;;;;;20.73;14.07;;;;;;;4.25;100.00;100530.78;10333613;28;20505;-74
2022/12/14 05:14:22;;;;;;;22.95;15.02;;;;;;;4.25;100.00;100543.94;10334113;28;20049;-74
2022/12/14 05:19:25;;;;;;;26.23;16.55;;;;;;;4.18;100.00;100548.81;10333851;28;20074;-73
2022/12/14 05:24:25;;;;;;;19.95;14.15;;;;;;;4.12;100.00;100544.06;10332976;28;20038;-74
2022/12/14 05:29:26;;;;;;;20.98;14.15;;;;;;;4.11;100.00;100559.00;10332667;28;20556;-73
2022/12/14 05:34:27;;;;;;;18.77;12.38;;;;;;;4.05;100.00;100542.88;10332685;28;20081;-74
2022/12/14 05:39:28;;;;;;;19.30;11.98;;;;;;;3.84;100.00;100495.47;10333063;28;20041;-74
2022/12/14 05:44:29;;;;;;;15.30;10.85;;;;;;;4.02;100.00;100515.03;10332248;28;20084;-73
2022/12/14 05:49:29;;;;;;;20.33;11.10;;;;;;;4.13;100.00;100543.13;10332441;28;20054;-74
2022/12/14 05:54:30;;;;;;;16.40;11.90;;;;;;;4.35;100.00;100564.09;10331927;28;20042;-73
2022/12/14 05:59:31;;;;;;;15.88;10.88;;;;;;;4.35;100.00;100568.53;10331965;28;20065;-74
2022/12/14 06:04:32;;;;;;;14.95;10.75;;;;;;;4.31;100.00;100559.22;10332476;28;20073;-73
2022/12/14 06:09:33;;;;;;;15.52;10.85;;;;;;;4.43;100.00;100581.06;10331749;28;20108;-73
2022/12/14 06:14:34;;;;;;;15.80;11.55;;;;;;;4.84;100.00;100646.16;10330878;28;20058;-73
2022/12/14 06:19:34;;;;;;;20.88;13.48;;;;;;;4.62;100.00;100591.78;10331975;28;20042;-74
2022/12/14 06:24:35;;;;;;;17.45;12.43;;;;;;;4.44;100.00;100561.69;10331791;28;20049;-73
2022/12/14 06:29:36;;;;;;;15.25;10.80;;;;;;;4.70;100.00;100628.03;10332185;28;20042;-73
2022/12/14 06:34:37;;;;;;;18.38;11.88;;;;;;;4.38;100.00;100581.44;10339346;28;20065;-73
2022/12/14 06:39:37;;;;;;;18.50;12.48;;;;;;;4.44;100.00;100604.63;10338727;28;20069;-74
2022/12/14 06:44:38;;;;;;;18.15;12.20;;;;;;;4.91;100.00;100684.19;10339822;28;20050;-73
2022/12/14 06:49:39;;;;;;;21.48;14.18;;;;;;;4.96;100.00;100682.03;10339316;28;20096;-73
2022/12/14 06:54:40;;;;;;;24.73;17.08;;;;;;;4.41;100.00;100591.72;10338662;28;20070;-73
2022/12/14 06:59:40;;;;;;;21.33;14.52;;;;;;;4.95;100.00;100679.53;10320981;28;20042;-73
2022/12/14 07:04:41;;;;;;;24.55;15.93;;;;;;;4.47;100.00;100601.75;10338542;28;20042;-73
2022/12/14 07:09:42;;;;;;;22.58;16.02;;;;;;;4.94;100.00;100691.84;10338129;28;20406;-73
2022/12/14 07:14:43;;;;;;;29.92;16.85;;;;;;;4.78;100.00;100663.28;10337768;28;20133;-73
2022/12/14 07:19:43;;;;;;;30.88;16.42;;;;;;;4.84;100.00;100682.16;10337175;28;20042;-73
2022/12/14 07:24:45;;;;;;;33.22;17.08;;;;;;;4.88;100.00;100694.97;10337897;28;20180;-73
2022/12/14 07:29:46;;;;;;;30.48;16.80;;;;;;;5.04;100.00;100718.28;10337925;28;20132;-73
2022/12/14 07:34:46;;;;;;;29.42;16.17;;;;;;;4.99;100.00;100702.84;10336942;28;20034;-73
2022/12/14 07:39:47;;;;;;;28.80;15.95;;;;;;;4.92;100.00;100683.25;10336332;28;20045;-73
2022/12/14 07:44:48;;;;;;;26.27;14.95;;;;;;;5.00;100.00;100709.78;10335480;28;20046;-75
2022/12/14 13:49:21;;;;;;;4.00;1.30;;;;;;;4.67;100.00;101029.13;10481421;27;20941;-73
2022/12/14 13:54:34;;;;;;;5.28;2.00;;;;;;;4.77;100.00;101037.16;10514657;28;20139;-78
2022/12/14 13:59:41;;;;;;;3.55;1.70;;;;;;;4.84;100.00;101037.53;10507397;28;20036;-76
2022/12/14 14:04:42;;;;;;;68.70;37.42;;;;;;;4.51;100.00;100994.34;10514311;28;20039;-77
2022/12/14 14:09:55;;;;;;;9.07;5.32;;;;;;;4.94;100.00;101060.44;10501541;28;20036;-76
2022/12/14 14:15:14;;;;;;;42.45;21.42;;;;;;;4.98;100.00;101063.69;10535213;28;20058;-77
2022/12/14 14:20:33;;;;;;;34.13;17.52;;;;;;;5.05;100.00;101070.16;10556371;28;20028;-77
2022/12/14 14:25:47;;;;;;;50.28;28.70;;;;;;;4.55;100.00;100993.19;10530352;28;20048;-77
2022/12/14 14:30:52;;;;;;;53.13;28.85;;;;;;;4.08;100.00;100927.31;10525763;28;20047;-78
2022/12/14 14:36:07;;;;;;;52.80;28.08;;;;;;;4.71;100.00;101038.44;10534255;28;20044;-77
2022/12/14 14:41:19;;;;;;;37.97;20.23;;;;;;;4.72;100.00;101057.72;10572842;28;20043;-74
2022/12/14 14:46:36;;;;;;;30.73;18.13;;;;;;;4.91;100.00;101091.44;10560821;28;20503;-75
2022/12/14 14:51:37;;;;;;;58.55;30.15;;;;;;;4.38;100.00;101015.44;10572069;28;20600;-76
2022/12/14 14:56:38;;;;;;;73.60;38.25;;;;;;;4.39;100.00;101035.53;10566400;28;20545;-81
2022/12/14 15:01:49;;;;;;;45.65;28.38;;;;;;;4.83;100.00;101109.56;10543688;28;20036;-80
2022/12/14 15:06:57;;;;;;;31.30;19.73;;;;;;;4.89;100.00;101119.66;10541141;28;20081;-79
2022/12/14 15:12:06;;;;;;;22.80;13.65;;;;;;;4.72;100.00;101108.56;10543888;28;20054;-79
2022/12/14 15:17:13;;;;;;;11.88;5.53;;;;;;;4.29;100.00;101055.56;10543598;28;20130;-79
2022/12/14 15:22:18;;;;;;;23.98;12.55;;;;;;;4.65;100.00;101128.38;10543067;28;20044;-79
2022/12/14 15:27:34;;;;;;;20.92;12.98;;;;;;;4.44;100.00;101109.72;10540773;28;20039;-79
2022/12/14 15:32:37;;;;;;;11.93;6.68;;;;;;;4.48;100.00;101126.94;10511018;28;20047;-80
2022/12/14 15:37:48;;;;;;;23.83;12.35;;;;;;;3.92;100.00;101054.69;10525212;28;20450;-79
2022/12/14 15:42:55;;;;;;;11.98;7.90;;;;;;;4.27;100.00;101129.31;10501925;28;20086;-79
2022/12/14 15:48:12;;;;;;;15.20;10.32;;;;;;;4.38;100.00;101152.25;10498140;28;20500;-79
2022/12/14 15:53:47;;;;;;;11.30;8.63;;;;;;;4.42;100.00;101152.84;10499529;28;20039;-79
2022/12/14 15:58:48;;;;;;;16.67;11.95;;;;;;;4.25;100.00;101149.63;10486845;28;20076;-80
2022/12/14 16:03:53;;;;;;;11.52;7.80;;;;;;;3.88;100.00;101104.84;10499546;28;20420;-79
2022/12/14 16:08:57;;;;;;;17.05;12.23;;;;;;;4.37;100.00;101171.63;10498421;28;20484;-78
2022/12/14 16:14:02;;;;;;;5.47;4.00;;;;;;;3.51;100.00;101027.75;10505197;28;20051;-78
2022/12/14 16:19:06;;;;;;;6.38;4.40;;;;;;;4.27;100.00;101166.13;10520931;28;20145;-79
2022/12/14 16:24:24;;;;;;;11.35;7.50;;;;;;;4.14;100.00;101146.06;10521470;28;20040;-77
2022/12/14 16:29:32;;;;;;;9.18;5.78;;;;;;;3.66;100.00;101068.72;10539456;28;20051;-76
2022/12/14 16:34:33;;;;;;;10.77;4.95;;;;;;;3.75;100.00;101090.91;10522218;28;20081;-75
2022/12/14 16:39:43;;;;;;;11.57;7.00;;;;;;;4.17;100.00;101182.69;10512486;28;20562;-75
2022/12/14 16:44:44;;;;;;;9.23;6.22;;;;;;;3.46;100.00;101056.09;10504536;28;20056;-78
2022/12/14 16:49:49;;;;;;;11.13;6.88;;;;;;;4.30;100.00;101205.38;10497293;28;20119;-76
2022/12/14 16:55:10;;;;;;;10.98;5.90;;;;;;;4.22;100.00;101175.28;10509191;28;20055;-76
2022/12/14 17:00:18;;;;;;;6.55;4.47;;;;;;;3.78;100.00;101108.25;10496738;28;20053;-76
2022/12/14 17:05:21;;;;;;;9.57;6.43;;;;;;;4.39;100.00;101203.91;10485067;28;20044;-76
2022/12/14 17:10:25;;;;;;;4.25;2.60;;;;;;;4.37;100.00;101203.19;10472051;28;20082;-76
2022/12/14 17:15:29;;;;;;;6.70;3.75;;;;;;;4.10;100.00;101179.63;10481692;28;20492;-77
2022/12/14 17:20:35;;;;;;;4.63;2.60;;;;;;;4.21;100.00;101205.19;10478932;28;20047;-77
2022/12/14 17:25:36;;;;;;;5.38;3.15;;;;;;;4.16;100.00;101217.78;10520615;28;20036;-77
2022/12/14 17:30:37;;;;;;;5.72;3.88;;;;;;;3.86;100.00;101183.00;10480803;28;20067;-76
2022/12/14 17:35:37;;;;;;;4.63;3.00;;;;;;;3.58;100.00;101141.94;10504803;28;20051;-77
2022/12/14 17:40:38;;;;;;;5.70;4.35;;;;;;;3.29;100.00;101103.66;10463669;28;20040;-77
2022/12/14 17:45:40;;;;;;;7.78;3.95;;;;;;;3.95;100.00;101225.34;10468714;28;20048;-77
2022/12/14 17:50:45;;;;;;;5.22;3.55;;;;;;;3.89;100.00;101218.75;10488043;28;20040;-77
2022/12/14 17:55:47;;;;;;;6.32;3.70;;;;;;;3.61;100.00;101183.78;10473037;28;20501;-76
2022/12/14 18:01:01;;;;;;;8.55;5.00;;;;;;;3.79;100.00;101228.19;10492361;28;20047;-76
2022/12/14 18:06:03;;;;;;;6.15;4.38;;;;;;;3.35;100.00;101145.28;10495437;28;20043;-76
2022/12/14 18:11:05;;;;;;;6.25;4.25;;;;;;;3.48;100.00;101156.66;10501183;28;20040;-77
2022/12/14 18:16:06;;;;;;;7.72;4.47;;;;;;;3.68;100.00;101194.75;10475932;28;20055;-76
2022/12/14 18:21:19;;;;;;;8.27;4.18;;;;;;;3.87;100.00;101213.56;10495685;28;20416;-77
2022/12/14 18:26:21;;;;;;;9.65;4.53;;;;;;;3.79;100.00;101199.28;10530529;28;20043;-76
2022/12/14 18:31:33;;;;;;;10.13;5.28;;;;;;;3.92;100.00;101208.03;10536516;28;20135;-77
2022/12/14 18:36:33;;;;;;;11.70;5.05;;;;;;;3.88;100.00;101220.50;10543384;28;20063;-78
2022/12/14 18:41:34;;;;;;;8.85;5.18;;;;;;;3.94;100.00;101206.13;10502858;28;20043;-77
2022/12/14 18:46:37;;;;;;;7.75;5.13;;;;;;;3.87;100.00;101200.44;10500999;28;20056;-76
2022/12/14 18:51:38;;;;;;;8.35;5.43;;;;;;;3.80;100.00;101199.19;10510167;28;20044;-78
2022/12/14 18:56:40;;;;;;;7.07;5.35;;;;;;;3.78;100.00;101192.34;10506386;28;20048;-78
2022/12/14 19:01:41;;;;;;;8.85;5.63;;;;;;;3.32;100.00;101113.97;10539292;28;20040;-79
2022/12/14 19:06:42;;;;;;;7.50;5.72;;;;;;;3.43;100.00;101124.59;10518271;28;20396;-79
2022/12/14 19:11:43;;;;;;;7.78;6.57;;;;;;;3.95;100.00;101234.09;10501074;28;20040;-78
2022/12/14 19:16:44;;;;;;;17.63;6.82;;;;;;;3.79;100.00;101213.25;10501072;28;20082;-79
2022/12/14 19:21:45;;;;;;;11.10;7.13;;;;;;;3.18;100.00;101133.28;10500309;28;20067;-78
2022/12/14 19:26:45;;;;;;;12.40;7.03;;;;;;;3.01;100.00;101142.25;10512053;28;20024;-78
2022/12/14 19:31:46;;;;;;;13.50;7.40;;;;;;;3.36;100.00;101212.63;10511202;28;20496;-79
2022/12/14 19:36:47;;;;;;;16.80;8.20;;;;;;;3.42;100.00;101231.44;10504739;28;20040;-78
2022/12/14 19:41:48;;;;;;;14.93;9.48;;;;;;;3.38;100.00;101223.84;10528517;28;20047;-78
2022/12/14 19:46:49;;;;;;;15.70;10.38;;;;;;;2.95;100.00;101163.63;10540543;28;20051;-79
2022/12/14 19:51:50;;;;;;;17.63;13.10;;;;;;;3.16;100.00;101201.63;10541985;28;20047;-79
2022/12/14 19:56:51;;;;;;;15.48;11.38;;;;;;;3.35;100.00;101214.41;10536869;28;20050;-78
2022/12/14 20:01:51;;;;;;;19.05;12.35;;;;;;;3.09;100.00;101174.09;10531336;28;20044;-78
2022/12/14 20:06:52;;;;;;;13.68;10.25;;;;;;;3.23;100.00;101193.34;10541327;28;20044;-79
2022/12/14 20:11:53;;;;;;;13.13;8.55;;;;;;;3.32;100.00;101208.50;10540305;28;20043;-79
2022/12/14 20:16:54;;;;;;;12.93;8.45;;;;;;;3.23;100.00;101201.22;10539982;28;20048;-78
2022/12/14 20:21:55;;;;;;;14.13;8.00;;;;;;;2.96;99.93;101162.69;10539739;28;20503;-79
2022/12/14 20:26:56;;;;;;;12.60;7.97;;;;;;;3.36;99.54;101247.59;10539947;28;20423;-79
2022/12/14 20:31:56;;;;;;;11.63;8.18;;;;;;;3.36;99.13;101239.72;10540632;28;20027;-79
2022/12/14 20:36:58;;;;;;;11.77;7.65;;;;;;;2.94;98.92;101162.81;10539708;28;20044;-79
2022/12/14 20:41:59;;;;;;;14.52;9.82;;;;;;;3.14;98.71;101211.41;10538526;28;20377;-79
2022/12/14 20:46:59;;;;;;;16.48;9.27;;;;;;;2.53;98.79;101101.63;10539396;28;20064;-78
2022/12/14 20:52:00;;;;;;;17.75;9.98;;;;;;;3.38;98.76;101234.38;10526588;28;20040;-78
2022/12/14 20:57:01;;;;;;;12.48;8.05;;;;;;;3.10;98.60;101188.06;10539027;28;20385;-78
2022/12/14 21:02:02;;;;;;;17.05;12.60;;;;;;;2.31;98.14;101068.91;10538980;28;20048;-78
2022/12/14 21:07:03;;;;;;;20.50;13.23;;;;;;;2.42;98.62;101124.16;10537836;28;20032;-78
2022/12/14 21:12:19;;;;;;;17.50;11.80;;;;;;;3.07;98.66;101214.50;10537971;28;20047;-78
2022/12/14 21:17:23;;;;;;;13.23;9.13;;;;;;;2.91;98.99;101191.03;10538766;28;20499;-79
2022/12/14 21:22:27;;;;;;;17.42;9.98;;;;;;;3.04;99.25;101206.84;10538138;28;20048;-78
2022/12/14 21:27:30;;;;;;;15.43;10.47;;;;;;;3.09;99.60;101218.72;10538718;28;20040;-78
2022/12/14 21:32:34;;;;;;;13.73;9.60;;;;;;;3.12;99.34;101218.53;10537377;28;20438;-78
2022/12/14 21:37:37;;;;;;;13.95;8.50;;;;;;;3.08;99.61;101205.69;10537442;28;20503;-78
2022/12/14 21:42:38;;;;;;;13.10;8.32;;;;;;;3.10;99.44;101217.78;10538456;28;20452;-78
2022/12/14 21:47:39;;;;;;;12.93;9.00;;;;;;;2.89;99.21;101221.78;10538236;28;20116;-78
2022/12/14 21:52:39;;;;;;;15.13;10.55;;;;;;;1.96;99.63;101060.63;10537470;28;20392;-78
2022/12/14 22:02:59;;;;;;;17.88;11.63;;;;;;;2.68;99.95;101167.09;10536760;28;20503;-78
2022/12/14 22:08:00;;;;;;;16.08;9.35;;;;;;;3.03;99.97;101223.53;10540293;28;20064;-78
2022/12/14 22:13:01;;;;;;;12.02;8.52;;;;;;;2.60;99.83;101174.59;10546103;28;20043;-79
2022/12/14 22:18:02;;;;;;;13.02;8.57;;;;;;;2.24;99.28;101123.53;10544634;28;20467;-78
2022/12/14 22:23:02;;;;;;;13.35;8.32;;;;;;;2.14;99.24;101130.25;10533646;28;20040;-78
2022/12/14 22:28:03;;;;;;;16.45;8.73;;;;;;;2.49;99.85;101200.66;10461124;28;20056;-78
2022/12/14 22:33:06;;;;;;;12.13;7.88;;;;;;;2.50;99.71;101202.34;10461799;28;20128;-78
2022/12/14 22:38:07;;;;;;;12.77;8.55;;;;;;;2.44;99.82;101187.81;10461020;28;20048;-78
2022/12/14 22:43:08;;;;;;;13.45;8.55;;;;;;;2.65;100.00;101224.16;10460533;28;20064;-78
2022/12/14 22:48:08;;;;;;;14.75;8.25;;;;;;;2.44;100.00;101193.06;10472045;28;20048;-78
2022/12/14 22:53:10;;;;;;;14.48;8.75;;;;;;;2.17;100.00;101147.56;10535502;28;20434;-78
2022/12/14 22:58:12;;;;;;;14.00;9.48;;;;;;;2.52;100.00;101218.81;10543530;28;20453;-78
2022/12/14 23:03:13;;;;;;;14.80;9.38;;;;;;;2.57;100.00;101218.53;10542997;28;20562;-78
2022/12/14 23:08:14;;;;;;;13.38;9.15;;;;;;;2.56;100.00;101219.47;10544099;28;20036;-78
